Auburn, KS

5:34 PM CST on December 27, 2014 (GMT -0600)
Forbes | Change Station
CLOSE
Current Station
Airport
Location: Topeka Forbes,
Elevation: 1079 ft
Nearby Weather Stations

Elev 1079 ft 38.95 °N, 95.66 °W | Updated 41 minutes ago

Clear
Clear
31 °F
Feels Like 22 °F
N
12
Wind Variable Wind from WNW

Today
High -- | Low -- °F
--% Chance of Precip.
Yesterday
High -- | Low -- °F
Precip. -- in
7:40 AM 5:08 PM
Waxing Crescent, 41% visible
Pressure 30.29 in
Visibility 10.0 miles
Clouds Clear
Windchill 22 °F
Dew Point 18 °F
Humidity 59%
Rainfall 0.00 in
Snow Depth Not available.
UV 0 out of 12
Pollen .10 out of 12
Air Quality Not available.
Flu Activity Not available.
METAR KFOE 272253Z 30010KT 10SM CLR M01/M08 A3025 RMK AO2 SLP255 T10061078

More Conditions Fewer Conditions

Pressure 30.29 in
Visibility 10.0 miles
Clouds Clear
Windchill 22 °F
Dew Point 18 °F
Humidity 59%
Rainfall 0.00 in
Snow Depth Not available.
UV 0 out of 12
Pollen .10 out of 12
Air Quality Not available.
Flu Activity Not available.
METAR KFOE 272253Z 30010KT 10SM CLR M01/M08 A3025 RMK AO2 SLP255 T10061078

More Conditions Fewer Conditions

10-Day Weather Forecast

Almanac

Astronomy

Dec. 27, 2014 Rise Set
Actual Time
Civil Twilight
Nautical Twilight
Astronomical Twilight
Moon
Length of Visible Light
Length of Day
Tomorrow will be .
, % of the Moon is Illuminated

Today's Extremes

State Highs State Lows

Community

WunderPhotos

Upload Photos

1,781,109 photos uploaded!

WunderBlogs® & News

Nearby

Air Quality

  Air Quality AQ Index Pollutant
Not available.

Snow Depth

Station Depth Elevation

Earthquake Activity

City Distance Mag. Time & Date
Minimum magnitude displayed is 2.5.

Coastal Water Temperatures

Place Temperature

Nearby Weather Stations